GCLPLEAL

Guest
Details From GCLP - Gran Canaria
To LEAL - Alicante
Flight Number -
Tags decoded
Created
Modified
Stats Distance 969 nm / 1,794 km
Max Altitude 0 ft / 0 m
Waypoints 2
Social Downloads 0
Likes 0
Share VATSIM

Download

Looking for another format? Having issues loading an existing format? Contact us
Advertisement - Login to hide

Notes

Requested: GCLP LEAL

Route

GCLP LEAL

ID Type Via Altitude Latitude Longitude Leg Dist Tot Dist Heading (true) Name
O GCLP APT - 0 ft / 0 m 27.93154˚ -15.38559˚ - 0 nm - Gran Canaria
O LEAL APT - 0 ft / 0 m 38.28217˚ -0.55816˚ 968 nm 968 nm 46° / 54° Alicante

Altitude Profile

Advertisement - Login to hide

Weather


0- 5 10 15 20 25 30 35+ Temperature / ° C

Clouds and Precipitation
Forecast for 2017-12-15 12:00 UTC. Updated an hour ago

Ground ~20,000 ft ~40,000 ft Winds

GCLP

Details ICAO GCLP (LPA)
Name Gran Canaria
Region Canary Islands
Timezone Atlantic/Canary (UTC+0.0)
Stats Elevation 77 ft / 23 m (AMSL)
Location 27.931544° -15.385592°
Runways 2
Magnetic Variation 4.684° W

METAR

GCLP 151030Z 01015KT 9999 FEW025 BKN040 21/14 Q1026 NOSIG

Decode

TAF

TAF GCLP 150800Z 1509/1609 01015KT 9999 FEW025 TX22/1514Z TN17/1606Z= TAF AMD KNLC 1508/1607 VRB06KT 6000 HZ FEW250 QNH3005INS TEMPO 1508/1514 1600 BR FM160200 VRB06KT 9999 SCT250 QNH2994INS AUTOMATED SENSOR METWATCH 1508 TIL 1515 TM03/1515Z T20/1523Z AMD 0820 FS30094

Decode

Departure Runways

ID Width Length Bearing (true) Bearing (mag) Surface Threshold Offset Overrun Length
03L 148 ft / 45 m 10,203 ft / 3,110 m 21.33° 26.01° Asphalt 0 ft / 0 m 656 ft / 200 m
03R 148 ft / 45 m 10,200 ft / 3,109 m 21.32° 26.00° Asphalt 0 ft / 0 m 673 ft / 205 m
21L 148 ft / 45 m 10,200 ft / 3,109 m 201.33° 206.01° Asphalt 0 ft / 0 m 689 ft / 210 m
21R 148 ft / 45 m 10,203 ft / 3,110 m 201.33° 206.01° Asphalt 0 ft / 0 m 755 ft / 230 m

LEAL

Details ICAO LEAL (ALC)
Name Alicante
Region Spain
Timezone Europe/Madrid (UTC+1.0)
Stats Elevation 141 ft / 43 m (AMSL)
Location 38.282169° -0.558157°
Runways 1
Magnetic Variation 0.184° E

METAR

LEAL 151030Z 25012KT CAVOK 19/08 Q1010 NOSIG

Decode

TAF

TAF TAF LEAL 150500Z 1506/1606 24011KT 9999 FEW030 TX21/1513Z TN06/1606Z TEMPO 1506/1509 VRB04KT TEMPO 1511/1515 30012G25KT BECMG 1512/1515 29012KT BECMG 1518/1520 30006KT

Decode

Destination Runways

ID Width Length Bearing (true) Bearing (mag) Surface Threshold Offset Overrun Length
10 148 ft / 45 m 9,799 ft / 2,987 m 100.07° 99.89° Asphalt 0 ft / 0 m 164 ft / 50 m
28 148 ft / 45 m 9,799 ft / 2,987 m 280.09° 279.91° Asphalt 0 ft / 0 m 197 ft / 60 m

Approach Navaids

Runway Type Ident Frequency Range Bearing (true) Bearing (mag) Slope Elevation
10 Localiser IAT 110.30 MHz 18 nm / 33 km 100.09° 99.91° - 29 ft / 9 m (AMSL)
10 Glidescope IAT 110.30 MHz 10 nm / 19 km 100.09° 99.91° 3.00° 129 ft / 39 m (AMSL)
10 DME IAT 110.30 MHz 18 nm / 33 km - - - 129 ft / 39 m (AMSL)

Popular Alternatives